createdAt,value
2018-12-22T00:00:23.783Z,85.57
2018-12-22T00:02:52.167Z,85.73
2018-12-22T00:05:20.532Z,87.53
2018-12-22T00:07:48.900Z,88.03
2018-12-22T00:10:17.254Z,84.30
2018-12-22T00:12:45.666Z,83.23
2018-12-22T00:15:13.984Z,85.23
2018-12-22T00:17:42.347Z,84.00
2018-12-22T00:20:10.680Z,84.83
2018-12-22T00:22:39.063Z,87.00
2018-12-22T00:25:07.407Z,85.53
2018-12-22T00:27:38.637Z,85.63
2018-12-22T00:30:07.127Z,85.87
2018-12-22T00:32:35.474Z,85.23
2018-12-22T00:35:04.117Z,85.80
2018-12-22T00:37:32.465Z,86.73
2018-12-22T00:40:01.315Z,85.50
2018-12-22T00:42:29.770Z,86.23
2018-12-22T00:44:58.158Z,85.47
2018-12-22T00:47:26.528Z,86.30
2018-12-22T00:49:54.905Z,85.90
2018-12-22T00:52:24.217Z,86.37
2018-12-22T00:54:52.677Z,85.37
2018-12-22T00:57:21.027Z,84.63
2018-12-22T00:59:49.421Z,84.03
2018-12-22T01:02:18.507Z,84.80
2018-12-22T01:04:47.137Z,85.07
2018-12-22T01:07:15.726Z,85.57
2018-12-22T01:09:44.091Z,85.17
2018-12-22T01:12:12.446Z,84.57
2018-12-22T01:14:40.807Z,85.47
2018-12-22T01:17:09.310Z,85.00
2018-12-22T01:19:37.626Z,86.77
2018-12-22T01:22:06.033Z,85.60
2018-12-22T01:24:34.406Z,86.67
2018-12-22T01:27:02.799Z,86.40
2018-12-22T01:29:32.276Z,87.17
2018-12-22T01:32:00.656Z,87.07
2018-12-22T01:34:28.983Z,85.67
2018-12-22T01:36:57.448Z,85.67
2018-12-22T01:39:26.219Z,85.67
2018-12-22T01:41:54.561Z,86.67
2018-12-22T01:44:22.932Z,84.10
2018-12-22T01:46:51.391Z,84.03
2018-12-22T01:49:19.779Z,84.43
2018-12-22T01:51:48.299Z,85.13
2018-12-22T01:54:16.675Z,85.47
2018-12-22T01:56:45.036Z,85.20
2018-12-22T01:59:13.419Z,86.33
2018-12-22T02:01:41.789Z,87.30
2018-12-22T02:04:10.276Z,86.10
2018-12-22T02:06:39.295Z,87.13
2018-12-22T02:09:09.364Z,87.57
2018-12-22T02:11:37.762Z,89.60
2018-12-22T02:14:06.132Z,85.83
2018-12-22T02:16:34.602Z,86.20
2018-12-22T02:19:02.915Z,86.47
2018-12-22T02:21:31.287Z,85.97
2018-12-22T02:24:00.197Z,85.37
2018-12-22T02:26:28.954Z,86.00
2018-12-22T02:28:57.396Z,85.90
2018-12-22T02:31:26.688Z,85.07
2018-12-22T02:33:55.196Z,84.23
2018-12-22T02:36:23.699Z,85.07
2018-12-22T02:38:52.009Z,84.83
2018-12-22T02:41:20.397Z,84.53
2018-12-22T02:43:48.816Z,84.50
2018-12-22T02:46:17.444Z,84.60
2018-12-22T02:48:45.805Z,83.77
2018-12-22T02:51:14.232Z,85.93
2018-12-22T02:53:42.710Z,84.97
2018-12-22T02:56:11.065Z,86.57
2018-12-22T02:58:39.462Z,86.43
2018-12-22T03:01:07.808Z,87.30
2018-12-22T03:03:36.665Z,86.13
2018-12-22T03:06:04.980Z,85.17
2018-12-22T03:08:33.414Z,84.77
2018-12-22T03:11:01.774Z,86.67
2018-12-22T03:13:30.268Z,87.17
2018-12-22T03:15:58.648Z,87.43
2018-12-22T03:18:27.009Z,83.90
2018-12-22T03:20:55.372Z,84.00
2018-12-22T03:23:23.724Z,85.23
2018-12-22T03:25:52.211Z,84.00
2018-12-22T03:28:20.653Z,83.63
2018-12-22T03:30:49.013Z,84.37
2018-12-22T03:33:17.381Z,83.90
2018-12-22T03:35:45.736Z,86.40
2018-12-22T03:38:14.099Z,86.17
2018-12-22T03:40:42.466Z,84.20
2018-12-22T03:43:11.169Z,85.20
2018-12-22T03:45:39.616Z,86.30
2018-12-22T03:48:07.986Z,86.17
2018-12-22T03:50:36.330Z,84.83
2018-12-22T03:53:05.060Z,85.50
2018-12-22T03:55:33.566Z,86.23
2018-12-22T03:58:01.984Z,86.20
2018-12-22T04:00:30.354Z,85.07
2018-12-22T04:02:58.716Z,85.40
2018-12-22T04:05:27.217Z,84.20
2018-12-22T04:07:55.783Z,84.67
2018-12-22T04:10:25.106Z,84.33
2018-12-22T04:12:53.481Z,85.23
2018-12-22T04:15:21.915Z,85.60
2018-12-22T04:17:50.270Z,84.67
2018-12-22T04:20:18.645Z,85.63
2018-12-22T04:22:47.022Z,86.50
2018-12-22T04:25:15.383Z,85.13
2018-12-22T04:27:43.746Z,86.83
2018-12-22T04:30:12.070Z,87.43
2018-12-22T04:32:40.502Z,87.13
2018-12-22T04:35:09.253Z,85.50
2018-12-22T04:37:37.919Z,84.63
2018-12-22T04:40:06.299Z,85.83
2018-12-22T04:42:34.702Z,85.23
2018-12-22T04:45:03.253Z,84.70
2018-12-22T04:47:31.734Z,84.57
2018-12-22T04:50:00.287Z,86.03
2018-12-22T04:52:28.683Z,85.17
2018-12-22T04:54:57.032Z,85.03
2018-12-22T04:57:25.385Z,86.87
2018-12-22T04:59:53.756Z,85.17
2018-12-22T05:02:22.107Z,85.97
2018-12-22T05:04:50.435Z,86.40
2018-12-22T05:07:18.771Z,86.43
2018-12-22T05:09:47.138Z,85.13
2018-12-22T05:12:15.507Z,85.97
2018-12-22T05:14:43.850Z,86.00
2018-12-22T05:17:12.203Z,86.13
2018-12-22T05:19:40.804Z,86.60
2018-12-22T05:22:09.258Z,86.23
2018-12-22T05:24:37.635Z,85.53
2018-12-22T05:27:06.016Z,85.43
2018-12-22T05:29:34.434Z,84.13
2018-12-22T05:32:02.791Z,85.10
2018-12-22T05:34:31.145Z,84.23
2018-12-22T05:36:59.602Z,84.80
2018-12-22T05:39:28.035Z,84.73
2018-12-22T05:41:56.345Z,84.80
2018-12-22T05:44:24.930Z,84.43
2018-12-22T05:46:53.374Z,86.50
2018-12-22T05:49:21.745Z,86.43
2018-12-22T05:51:50.090Z,86.63
2018-12-22T05:54:18.446Z,86.47
2018-12-22T05:56:46.781Z,86.50
2018-12-22T05:59:15.290Z,86.23
2018-12-22T06:01:43.642Z,86.87
2018-12-22T06:04:12.121Z,85.77
2018-12-22T06:06:40.476Z,87.30
2018-12-22T06:09:08.840Z,85.73
2018-12-22T06:11:37.192Z,83.47
2018-12-22T06:14:05.567Z,83.83
2018-12-22T06:16:33.948Z,84.33
2018-12-22T06:19:02.591Z,84.87
2018-12-22T06:21:30.960Z,84.93
2018-12-22T06:23:59.450Z,86.20
2018-12-22T06:26:28.006Z,85.17
2018-12-22T06:28:56.389Z,84.90
2018-12-22T06:31:24.732Z,86.27
2018-12-22T06:33:53.115Z,86.87
2018-12-22T06:36:21.462Z,86.37
2018-12-22T06:38:49.796Z,90.67
2018-12-22T06:41:18.774Z,86.13
2018-12-22T06:43:48.110Z,85.50
2018-12-22T06:46:16.485Z,86.03
2018-12-22T06:48:44.858Z,85.73
2018-12-22T06:51:13.198Z,87.43
2018-12-22T06:53:42.087Z,86.03
2018-12-22T06:56:10.543Z,85.83
2018-12-22T06:58:38.965Z,84.37
2018-12-22T07:01:07.329Z,85.23
2018-12-22T07:03:35.651Z,85.47
2018-12-22T07:06:04.110Z,85.30
2018-12-22T07:08:33.427Z,85.17
2018-12-22T07:11:01.795Z,83.83
2018-12-22T07:13:31.271Z,83.43
2018-12-22T07:16:00.204Z,85.57
2018-12-22T07:18:28.559Z,86.10
2018-12-22T07:20:57.057Z,86.70
2018-12-22T07:23:25.451Z,86.57
2018-12-22T07:25:53.841Z,87.03
2018-12-22T07:28:22.263Z,85.93
2018-12-22T07:30:50.621Z,87.07
2018-12-22T07:33:19.052Z,85.80
2018-12-22T07:35:48.382Z,85.47
2018-12-22T07:38:16.722Z,85.60
2018-12-22T07:40:45.688Z,86.47
2018-12-22T07:43:14.067Z,86.57
2018-12-22T07:45:42.439Z,85.40
2018-12-22T07:48:10.794Z,85.07
2018-12-22T07:50:39.173Z,85.97
2018-12-22T07:53:07.555Z,88.63
2018-12-22T07:55:35.992Z,85.17
2018-12-22T07:58:04.333Z,87.13
2018-12-22T08:00:35.038Z,85.77
2018-12-22T08:03:03.048Z,85.30
2018-12-22T08:05:38.699Z,84.80
2018-12-22T08:08:01.794Z,84.60
2018-12-22T08:10:30.177Z,87.43
2018-12-22T08:12:59.170Z,87.33
2018-12-22T08:15:27.539Z,87.60
2018-12-22T08:17:55.875Z,86.50
2018-12-22T08:20:24.270Z,86.20
2018-12-22T08:22:52.701Z,87.33
2018-12-22T08:25:21.063Z,86.80
2018-12-22T08:27:49.475Z,88.00
2018-12-22T08:30:17.812Z,88.40
2018-12-22T08:32:46.156Z,88.77
2018-12-22T08:35:14.521Z,85.87
2018-12-22T08:37:42.925Z,85.73
2018-12-22T08:40:11.876Z,85.97
2018-12-22T08:42:40.256Z,84.97
2018-12-22T08:45:08.656Z,85.57
2018-12-22T08:47:37.150Z,85.00
2018-12-22T08:50:09.364Z,85.63
2018-12-22T08:52:37.690Z,85.70
2018-12-22T08:55:07.333Z,85.77
2018-12-22T08:57:37.781Z,85.97
2018-12-22T09:00:08.602Z,85.50
2018-12-22T09:02:37.231Z,85.70
2018-12-22T09:05:05.601Z,89.20
2018-12-22T09:07:33.965Z,86.17
2018-12-22T09:10:02.367Z,87.60
2018-12-22T09:12:30.719Z,88.27
2018-12-22T09:14:59.203Z,87.47
2018-12-22T09:17:27.607Z,88.27
2018-12-22T09:19:55.947Z,88.23
2018-12-22T09:22:24.284Z,87.53
2018-12-22T09:24:53.599Z,89.83
2018-12-22T09:27:21.928Z,88.53
2018-12-22T09:29:50.414Z,87.83
2018-12-22T09:32:18.753Z,87.70
2018-12-22T09:34:47.110Z,88.20
2018-12-22T09:37:15.474Z,87.63
2018-12-22T09:39:43.804Z,88.03
2018-12-22T09:42:12.465Z,90.13
2018-12-22T09:44:41.569Z,88.03
2018-12-22T09:47:09.868Z,86.37
2018-12-22T09:49:38.216Z,86.27
2018-12-22T09:52:06.574Z,85.53
2018-12-22T09:54:34.999Z,88.50
2018-12-22T09:57:03.325Z,89.10
2018-12-22T09:59:31.679Z,88.73
2018-12-22T10:01:59.993Z,88.00
2018-12-22T10:04:28.548Z,88.20
2018-12-22T10:06:57.441Z,87.50
2018-12-22T10:09:26.011Z,86.93
2018-12-22T10:11:54.348Z,88.77
2018-12-22T10:14:22.849Z,86.73
2018-12-22T10:16:51.318Z,89.00
2018-12-22T10:19:19.981Z,86.47
2018-12-22T10:21:48.930Z,91.33
2018-12-22T10:24:17.224Z,87.57
2018-12-22T10:26:45.586Z,86.50
2018-12-22T10:29:14.011Z,88.67
2018-12-22T10:31:42.367Z,89.90
2018-12-22T10:34:10.757Z,90.40
2018-12-22T10:36:39.369Z,87.43
2018-12-22T10:39:07.849Z,88.03
2018-12-22T10:41:36.246Z,88.83
2018-12-22T10:44:04.712Z,87.63
2018-12-22T10:46:33.054Z,88.97
2018-12-22T10:49:01.452Z,87.50
2018-12-22T10:51:30.555Z,87.73
2018-12-22T10:53:59.644Z,87.03
2018-12-22T10:56:28.607Z,88.07
2018-12-22T10:58:57.886Z,86.47
2018-12-22T11:01:26.929Z,87.53
2018-12-22T11:03:56.395Z,87.17
2018-12-22T11:06:24.811Z,90.47
2018-12-22T11:08:53.188Z,88.60
2018-12-22T11:11:21.567Z,88.30
2018-12-22T11:13:50.104Z,86.77
2018-12-22T11:16:18.619Z,88.83
2018-12-22T11:18:47.051Z,90.23
2018-12-22T11:21:15.425Z,86.70
2018-12-22T11:23:43.787Z,86.17
2018-12-22T11:26:12.234Z,89.63
2018-12-22T11:28:40.626Z,89.53
2018-12-22T11:31:09.006Z,86.37
2018-12-22T11:33:37.352Z,87.80
2018-12-22T11:36:05.801Z,89.87
2018-12-22T11:38:34.195Z,88.20
2018-12-22T11:41:02.580Z,88.23
2018-12-22T11:43:30.978Z,86.57
2018-12-22T11:45:59.358Z,88.30
2018-12-22T11:48:40.887Z,86.90
2018-12-22T11:51:09.313Z,87.00
2018-12-22T11:53:37.697Z,86.10
2018-12-22T11:56:06.094Z,87.77
2018-12-22T11:58:34.441Z,88.00
2018-12-22T12:01:02.874Z,88.00
2018-12-22T12:03:31.217Z,87.60
2018-12-22T12:05:59.595Z,89.47
2018-12-22T12:08:27.947Z,88.20
2018-12-22T12:10:56.760Z,90.77
2018-12-22T12:13:25.077Z,88.60
2018-12-22T12:16:00.254Z,89.67
2018-12-22T12:18:46.564Z,87.80
2018-12-22T12:21:14.912Z,87.90
2018-12-22T12:23:43.203Z,87.90
2018-12-22T12:26:11.569Z,86.23
2018-12-22T12:28:39.945Z,90.70
2018-12-22T12:31:08.819Z,88.20
2018-12-22T12:33:37.739Z,87.77
2018-12-22T12:36:06.158Z,92.73
2018-12-22T12:38:34.495Z,90.27
2018-12-22T12:41:02.967Z,88.83
2018-12-22T12:43:31.948Z,88.07
2018-12-22T12:46:00.414Z,89.33
2018-12-22T12:48:28.794Z,88.67
2018-12-22T12:50:57.236Z,87.03
2018-12-22T12:53:25.568Z,87.80
2018-12-22T12:55:53.961Z,86.83
2018-12-22T12:58:22.355Z,87.60
2018-12-22T13:00:50.747Z,87.30
2018-12-22T13:03:19.157Z,89.20
2018-12-22T13:05:47.514Z,87.30
2018-12-22T13:08:15.925Z,87.77
2018-12-22T13:10:44.277Z,87.33
2018-12-22T13:13:18.969Z,86.90
2018-12-22T13:15:47.336Z,86.67
2018-12-22T13:18:17.053Z,87.47
2018-12-22T13:20:46.657Z,87.57
2018-12-22T13:23:15.090Z,87.57
2018-12-22T13:25:43.629Z,86.73
2018-12-22T13:28:12.157Z,88.50
2018-12-22T13:30:40.711Z,89.80
2018-12-22T13:33:09.267Z,89.63
2018-12-22T13:35:37.822Z,89.10
2018-12-22T13:38:06.336Z,88.63
2018-12-22T13:40:34.955Z,89.30
2018-12-22T13:43:03.405Z,87.83
2018-12-22T13:45:31.766Z,90.40
2018-12-22T13:48:00.402Z,90.40
2018-12-22T13:50:28.812Z,89.57
2018-12-22T13:52:57.411Z,87.27
2018-12-22T13:55:25.785Z,87.23
2018-12-22T13:57:54.309Z,88.17
2018-12-22T14:00:22.849Z,86.83
2018-12-22T14:02:51.190Z,86.13
2018-12-22T14:05:21.361Z,87.13
2018-12-22T14:07:49.803Z,87.73
2018-12-22T14:10:18.373Z,89.83
2018-12-22T14:12:46.869Z,86.63
2018-12-22T14:15:18.067Z,90.60
2018-12-22T14:17:53.330Z,86.97
2018-12-22T14:20:22.839Z,89.40
2018-12-22T14:22:51.751Z,88.17
2018-12-22T14:25:24.831Z,92.93
2018-12-22T14:27:53.311Z,88.63
2018-12-22T14:30:22.157Z,87.67
2018-12-22T14:32:50.473Z,89.03
2018-12-22T14:35:30.527Z,86.27
2018-12-22T14:37:58.967Z,88.57
2018-12-22T14:40:27.440Z,88.43
2018-12-22T14:42:55.753Z,87.53
2018-12-22T14:45:26.267Z,89.57
2018-12-22T14:47:55.776Z,88.03
2018-12-22T14:50:24.116Z,87.67
2018-12-22T14:52:52.465Z,88.30
2018-12-22T14:55:21.519Z,87.47
2018-12-22T14:57:54.264Z,88.57
2018-12-22T15:00:22.630Z,89.37
2018-12-22T15:02:51.014Z,88.90
2018-12-22T15:05:19.434Z,89.63
2018-12-22T15:07:48.209Z,88.10
2018-12-22T15:10:16.777Z,88.10
2018-12-22T15:12:45.278Z,90.50
2018-12-22T15:15:13.696Z,88.30
2018-12-22T15:17:42.068Z,91.57
2018-12-22T15:20:14.758Z,89.23
2018-12-22T15:22:43.118Z,89.77
2018-12-22T15:25:11.610Z,90.57
2018-12-22T15:27:40.053Z,91.10
2018-12-22T15:30:11.311Z,90.97
2018-12-22T15:32:44.087Z,88.33
2018-12-22T15:35:10.146Z,88.67
2018-12-22T15:37:38.510Z,88.40
2018-12-22T15:40:07.316Z,88.20
2018-12-22T15:42:35.797Z,89.17
2018-12-22T15:45:05.781Z,89.60
2018-12-22T15:47:34.546Z,88.70
2018-12-22T15:50:03.273Z,90.90
2018-12-22T15:52:31.644Z,88.57
2018-12-22T15:55:00.063Z,89.97
2018-12-22T15:57:28.508Z,87.53
2018-12-22T15:59:56.892Z,88.60
2018-12-22T16:02:25.310Z,87.63
2018-12-22T16:04:53.662Z,88.57
2018-12-22T16:07:22.027Z,88.30
2018-12-22T16:09:50.401Z,87.43
2018-12-22T16:12:18.782Z,87.33
2018-12-22T16:14:47.220Z,88.40
2018-12-22T16:17:16.580Z,88.73
2018-12-22T16:19:45.253Z,90.23
2018-12-22T16:22:13.610Z,90.47
2018-12-22T16:24:42.699Z,88.17
2018-12-22T16:27:11.065Z,89.83
2018-12-22T16:29:42.361Z,89.93
2018-12-22T16:32:10.748Z,89.47
2018-12-22T16:34:39.105Z,90.43
2018-12-22T16:37:07.514Z,88.97
2018-12-22T16:39:35.965Z,91.87
2018-12-22T16:42:04.334Z,104.53
2018-12-22T16:44:32.717Z,105.55
2018-12-22T16:47:01.092Z,89.97
2018-12-22T16:49:29.502Z,88.80
2018-12-22T16:51:57.819Z,88.50
2018-12-22T16:54:26.163Z,89.33
2018-12-22T16:56:54.524Z,92.03
2018-12-22T16:59:23.274Z,89.87
2018-12-22T17:02:01.087Z,93.03
2018-12-22T17:04:29.405Z,94.73
2018-12-22T17:06:57.729Z,90.60
2018-12-22T17:09:26.128Z,94.40
2018-12-22T17:11:54.592Z,95.97
2018-12-22T17:14:22.954Z,93.00
2018-12-22T17:16:51.347Z,92.30
2018-12-22T17:19:19.683Z,92.30
2018-12-22T17:22:03.437Z,96.53
2018-12-22T17:25:37.543Z,111.25
2018-12-22T17:28:05.927Z,90.77
2018-12-22T17:30:34.311Z,97.13
2018-12-22T17:33:02.706Z,102.27
2018-12-22T17:35:31.147Z,95.93
2018-12-22T17:37:59.597Z,91.70
2018-12-22T17:40:28.000Z,98.97
2018-12-22T17:42:56.652Z,93.17
2018-12-22T17:45:24.994Z,98.40
2018-12-22T17:47:53.376Z,94.33
2018-12-22T17:50:21.751Z,93.73
2018-12-22T17:52:51.145Z,91.73
2018-12-22T17:55:19.617Z,95.47
2018-12-22T17:57:47.969Z,96.63
2018-12-22T18:00:16.528Z,89.17
2018-12-22T18:02:46.370Z,90.83
2018-12-22T18:05:14.778Z,90.67
2018-12-22T18:07:43.220Z,90.23
2018-12-22T18:10:11.676Z,92.30
2018-12-22T18:12:40.074Z,93.20
2018-12-22T18:15:11.861Z,91.50
2018-12-22T18:17:40.315Z,91.77
2018-12-22T18:20:09.108Z,94.67
2018-12-22T18:22:37.551Z,92.70
2018-12-22T18:25:08.444Z,89.70
2018-12-22T18:27:37.657Z,90.60
2018-12-22T18:30:08.623Z,93.83
2018-12-22T18:32:36.991Z,89.93
2018-12-22T18:35:06.001Z,88.20
2018-12-22T18:37:34.332Z,88.67
2018-12-22T18:40:02.846Z,88.97
2018-12-22T18:42:31.241Z,89.23
2018-12-22T18:44:59.633Z,90.60
2018-12-22T18:47:28.214Z,90.17
2018-12-22T18:49:56.667Z,87.77
2018-12-22T18:52:25.069Z,88.70
2018-12-22T18:54:53.479Z,88.57
2018-12-22T18:57:21.965Z,91.70
2018-12-22T18:59:51.095Z,90.03
2018-12-22T19:02:20.052Z,93.67
2018-12-22T19:04:48.398Z,88.67
2018-12-22T19:07:17.087Z,89.20
2018-12-22T19:09:48.127Z,90.13
2018-12-22T19:12:18.854Z,91.43
2018-12-22T19:14:53.027Z,89.57
2018-12-22T19:17:21.595Z,90.03
2018-12-22T19:19:51.299Z,89.57
2018-12-22T19:22:20.086Z,88.50
2018-12-22T19:24:48.452Z,89.47
2018-12-22T19:27:16.858Z,90.83
2018-12-22T19:29:45.255Z,89.77
2018-12-22T19:32:13.757Z,90.07
2018-12-22T19:34:43.548Z,90.43
2018-12-22T19:37:12.585Z,91.67
2018-12-22T19:39:40.882Z,88.97
2018-12-22T19:42:09.191Z,89.70
2018-12-22T19:44:37.611Z,88.10
2018-12-22T19:47:06.006Z,89.17
2018-12-22T19:49:34.411Z,89.30
2018-12-22T19:52:02.761Z,88.97
2018-12-22T19:54:31.176Z,88.47
2018-12-22T19:57:00.095Z,89.30
2018-12-22T19:59:28.547Z,90.30
2018-12-22T20:01:57.003Z,89.57
2018-12-22T20:04:26.126Z,93.97
2018-12-22T20:06:54.545Z,89.43
2018-12-22T20:09:22.928Z,91.57
2018-12-22T20:11:51.440Z,89.93
2018-12-22T20:14:19.833Z,90.10
2018-12-22T20:16:48.251Z,94.73
2018-12-22T20:19:16.700Z,91.23
2018-12-22T20:21:45.112Z,90.33
2018-12-22T20:24:13.472Z,93.03
2018-12-22T20:26:41.784Z,94.43
2018-12-22T20:29:10.333Z,91.80
2018-12-22T20:31:38.874Z,89.17
2018-12-22T20:34:11.188Z,89.83
2018-12-22T20:36:37.780Z,88.70
2018-12-22T20:39:07.003Z,89.60
2018-12-22T20:41:35.792Z,91.73
2018-12-22T20:44:04.211Z,87.90
2018-12-22T20:46:32.762Z,86.97
2018-12-22T20:49:02.137Z,88.00
2018-12-22T20:51:30.605Z,87.00
2018-12-22T20:53:59.075Z,87.57
2018-12-22T20:56:27.551Z,89.80
2018-12-22T20:58:56.006Z,91.57
2018-12-22T21:01:24.479Z,90.93
2018-12-22T21:03:53.049Z,88.97
2018-12-22T21:06:25.551Z,88.77
2018-12-22T21:08:54.004Z,88.77
2018-12-22T21:11:22.699Z,90.57
2018-12-22T21:13:51.073Z,89.93
2018-12-22T21:16:19.444Z,89.87
2018-12-22T21:18:48.189Z,89.17
2018-12-22T21:21:16.669Z,89.80
2018-12-22T21:23:45.032Z,89.30
2018-12-22T21:26:13.674Z,87.90
2018-12-22T21:28:42.015Z,88.03
2018-12-22T21:31:10.461Z,88.13
2018-12-22T21:33:38.816Z,87.67
2018-12-22T21:36:08.167Z,88.57
2018-12-22T21:38:37.123Z,88.47
2018-12-22T21:41:05.480Z,87.43
2018-12-22T21:43:33.951Z,88.87
2018-12-22T21:46:02.310Z,86.83
2018-12-22T21:48:30.684Z,87.87
2018-12-22T21:50:59.026Z,89.97
2018-12-22T21:53:27.511Z,89.70
2018-12-22T21:55:55.857Z,90.00
2018-12-22T21:58:24.294Z,90.30
2018-12-22T22:00:52.984Z,89.37
2018-12-22T22:03:21.350Z,90.03
2018-12-22T22:05:50.047Z,90.00
2018-12-22T22:08:18.453Z,90.07
2018-12-22T22:10:47.477Z,90.17
2018-12-22T22:13:15.902Z,88.43
2018-12-22T22:15:44.255Z,88.83
2018-12-22T22:18:13.246Z,87.63
2018-12-22T22:20:41.854Z,86.23
2018-12-22T22:23:18.651Z,88.00
2018-12-22T22:25:40.777Z,88.57
2018-12-22T22:28:09.157Z,87.90
2018-12-22T22:30:37.567Z,88.20
2018-12-22T22:33:05.918Z,89.07
2018-12-22T22:35:35.538Z,88.10
2018-12-22T22:38:04.722Z,88.37
2018-12-22T22:40:33.088Z,89.30
2018-12-22T22:43:01.429Z,90.50
2018-12-22T22:45:29.814Z,89.63
2018-12-22T22:47:58.207Z,89.30
2018-12-22T22:50:26.834Z,89.17
2018-12-22T22:52:55.499Z,90.60
2018-12-22T22:55:23.886Z,88.57
2018-12-22T22:57:52.719Z,89.67
2018-12-22T23:00:26.892Z,91.90
2018-12-22T23:02:55.920Z,89.97
2018-12-22T23:05:24.279Z,88.83
2018-12-22T23:07:52.679Z,89.77
2018-12-22T23:10:21.098Z,90.80
2018-12-22T23:12:49.482Z,91.13
2018-12-22T23:15:17.858Z,89.37
2018-12-22T23:17:46.271Z,90.63
2018-12-22T23:20:14.678Z,90.47
2018-12-22T23:22:43.076Z,90.00
2018-12-22T23:25:11.483Z,89.40
2018-12-22T23:27:39.884Z,87.77
2018-12-22T23:30:08.613Z,87.27
2018-12-22T23:32:36.974Z,87.00
2018-12-22T23:35:05.943Z,88.00
2018-12-22T23:37:34.569Z,88.47
2018-12-22T23:40:02.957Z,88.63
2018-12-22T23:42:31.368Z,88.67
2018-12-22T23:44:59.723Z,89.07
2018-12-22T23:47:28.089Z,89.70
2018-12-22T23:49:56.469Z,88.03
2018-12-22T23:52:25.077Z,88.97
2018-12-22T23:54:54.080Z,88.63
2018-12-22T23:57:22.582Z,88.13
2018-12-22T23:59:50.951Z,88.47
